sensor_id;sensor_type;location;lat;lon;timestamp;temperature;humidity
24207;DHT22;12351;52.284;9.160;2023-05-10T00:00:23;16.80;1.00
24207;DHT22;12351;52.284;9.160;2023-05-10T00:03:12;16.80;1.00
24207;DHT22;12351;52.284;9.160;2023-05-10T00:06:01;16.70;1.00
24207;DHT22;12351;52.284;9.160;2023-05-10T00:08:49;16.70;1.00
24207;DHT22;12351;52.284;9.160;2023-05-10T00:11:37;16.70;1.00
24207;DHT22;12351;52.284;9.160;2023-05-10T00:14:25;16.70;1.00
24207;DHT22;12351;52.284;9.160;2023-05-10T00:17:13;16.60;1.00
24207;DHT22;12351;52.284;9.160;2023-05-10T00:20:01;16.50;1.00
24207;DHT22;12351;52.284;9.160;2023-05-10T00:22:50;16.50;1.00
24207;DHT22;12351;52.284;9.160;2023-05-10T00:25:38;16.50;1.00
24207;DHT22;12351;52.284;9.160;2023-05-10T00:28:29;16.50;1.00
24207;DHT22;12351;52.284;9.160;2023-05-10T00:31:17;16.50;1.00
24207;DHT22;12351;52.284;9.160;2023-05-10T00:34:09;16.50;1.00
24207;DHT22;12351;52.284;9.160;2023-05-10T00:36:58;16.40;1.00
24207;DHT22;12351;52.284;9.160;2023-05-10T00:39:46;16.40;1.00
24207;DHT22;12351;52.284;9.160;2023-05-10T00:42:33;16.40;1.00
24207;DHT22;12351;52.284;9.160;2023-05-10T00:45:22;16.40;1.00
24207;DHT22;12351;52.284;9.160;2023-05-10T00:48:08;16.40;1.00
24207;DHT22;12351;52.284;9.160;2023-05-10T00:50:57;16.30;1.00
24207;DHT22;12351;52.284;9.160;2023-05-10T00:53:47;16.30;1.00
24207;DHT22;12351;52.284;9.160;2023-05-10T00:56:38;16.30;1.00
24207;DHT22;12351;52.284;9.160;2023-05-10T00:59:31;16.30;1.00
24207;DHT22;12351;52.284;9.160;2023-05-10T01:02:18;16.30;24.60
24207;DHT22;12351;52.284;9.160;2023-05-10T01:05:07;16.30;36.40
24207;DHT22;12351;52.284;9.160;2023-05-10T01:07:57;16.20;26.00
24207;DHT22;12351;52.284;9.160;2023-05-10T01:10:44;16.20;35.40
24207;DHT22;12351;52.284;9.160;2023-05-10T01:13:34;16.20;65.60
24207;DHT22;12351;52.284;9.160;2023-05-10T01:16:25;16.20;93.10
24207;DHT22;12351;52.284;9.160;2023-05-10T01:27:42;16.20;99.90
24207;DHT22;12351;52.284;9.160;2023-05-10T01:30:34;16.20;99.90
24207;DHT22;12351;52.284;9.160;2023-05-10T01:33:18;16.10;99.90
24207;DHT22;12351;52.284;9.160;2023-05-10T01:36:12;16.10;99.90
24207;DHT22;12351;52.284;9.160;2023-05-10T01:39:01;16.10;99.90
24207;DHT22;12351;52.284;9.160;2023-05-10T01:47:32;16.00;99.90
24207;DHT22;12351;52.284;9.160;2023-05-10T01:50:22;16.00;99.90
24207;DHT22;12351;52.284;9.160;2023-05-10T01:53:12;16.00;99.90
24207;DHT22;12351;52.284;9.160;2023-05-10T01:55:59;15.90;99.90
24207;DHT22;12351;52.284;9.160;2023-05-10T01:58:49;15.90;99.90
24207;DHT22;12351;52.284;9.160;2023-05-10T02:01:38;15.90;99.90
24207;DHT22;12351;52.284;9.160;2023-05-10T02:04:29;15.90;99.90
24207;DHT22;12351;52.284;9.160;2023-05-10T02:07:19;15.90;99.90
24207;DHT22;12351;52.284;9.160;2023-05-10T02:10:08;15.90;99.90
24207;DHT22;12351;52.284;9.160;2023-05-10T02:12:58;15.90;99.90
24207;DHT22;12351;52.284;9.160;2023-05-10T02:15:50;15.90;99.90
24207;DHT22;12351;52.284;9.160;2023-05-10T02:18:39;15.90;99.90
24207;DHT22;12351;52.284;9.160;2023-05-10T02:21:31;15.90;99.90
24207;DHT22;12351;52.284;9.160;2023-05-10T02:24:21;15.90;99.90
24207;DHT22;12351;52.284;9.160;2023-05-10T02:27:11;15.80;99.90
24207;DHT22;12351;52.284;9.160;2023-05-10T02:30:00;15.80;99.90
24207;DHT22;12351;52.284;9.160;2023-05-10T02:32:51;15.90;99.90
24207;DHT22;12351;52.284;9.160;2023-05-10T02:35:38;15.90;99.90
24207;DHT22;12351;52.284;9.160;2023-05-10T02:38:27;15.90;99.90
24207;DHT22;12351;52.284;9.160;2023-05-10T02:41:15;15.80;99.90
24207;DHT22;12351;52.284;9.160;2023-05-10T02:44:06;15.80;99.90
24207;DHT22;12351;52.284;9.160;2023-05-10T02:46:54;15.80;99.90
24207;DHT22;12351;52.284;9.160;2023-05-10T02:49:42;15.70;99.90
24207;DHT22;12351;52.284;9.160;2023-05-10T02:52:35;15.70;99.90
24207;DHT22;12351;52.284;9.160;2023-05-10T02:55:24;15.60;99.90
24207;DHT22;12351;52.284;9.160;2023-05-10T02:58:11;15.60;99.90
24207;DHT22;12351;52.284;9.160;2023-05-10T03:01:01;15.70;99.90
24207;DHT22;12351;52.284;9.160;2023-05-10T03:03:52;15.70;99.90
24207;DHT22;12351;52.284;9.160;2023-05-10T03:06:40;15.70;99.90
24207;DHT22;12351;52.284;9.160;2023-05-10T03:09:30;15.70;99.90
24207;DHT22;12351;52.284;9.160;2023-05-10T03:18:06;15.60;99.90
24207;DHT22;12351;52.284;9.160;2023-05-10T03:20:57;15.60;99.90
24207;DHT22;12351;52.284;9.160;2023-05-10T03:23:46;15.60;99.90
24207;DHT22;12351;52.284;9.160;2023-05-10T03:26:35;15.60;99.90
24207;DHT22;12351;52.284;9.160;2023-05-10T03:29:25;15.60;99.90
24207;DHT22;12351;52.284;9.160;2023-05-10T03:32:16;15.60;99.90
24207;DHT22;12351;52.284;9.160;2023-05-10T03:35:06;15.60;99.90
24207;DHT22;12351;52.284;9.160;2023-05-10T03:37:53;15.60;99.90
24207;DHT22;12351;52.284;9.160;2023-05-10T03:40:41;15.60;99.90
24207;DHT22;12351;52.284;9.160;2023-05-10T03:43:31;15.50;99.90
24207;DHT22;12351;52.284;9.160;2023-05-10T03:46:19;15.50;99.90
24207;DHT22;12351;52.284;9.160;2023-05-10T03:49:08;15.50;99.90
24207;DHT22;12351;52.284;9.160;2023-05-10T03:51:54;15.50;99.90
24207;DHT22;12351;52.284;9.160;2023-05-10T03:54:45;15.50;99.90
24207;DHT22;12351;52.284;9.160;2023-05-10T03:57:35;15.50;99.90
24207;DHT22;12351;52.284;9.160;2023-05-10T04:00:23;15.40;99.90
24207;DHT22;12351;52.284;9.160;2023-05-10T04:03:13;15.40;99.90
24207;DHT22;12351;52.284;9.160;2023-05-10T04:06:04;15.40;99.90
24207;DHT22;12351;52.284;9.160;2023-05-10T04:08:52;15.30;99.90
24207;DHT22;12351;52.284;9.160;2023-05-10T04:11:41;15.20;99.90
24207;DHT22;12351;52.284;9.160;2023-05-10T04:14:28;15.20;99.90
24207;DHT22;12351;52.284;9.160;2023-05-10T04:17:17;15.20;99.90
24207;DHT22;12351;52.284;9.160;2023-05-10T04:20:08;15.20;99.90
24207;DHT22;12351;52.284;9.160;2023-05-10T04:22:56;15.20;99.90
24207;DHT22;12351;52.284;9.160;2023-05-10T04:25:44;15.10;99.90
24207;DHT22;12351;52.284;9.160;2023-05-10T04:28:37;15.10;99.90
24207;DHT22;12351;52.284;9.160;2023-05-10T04:31:33;15.10;99.90
24207;DHT22;12351;52.284;9.160;2023-05-10T04:34:23;15.10;99.90
24207;DHT22;12351;52.284;9.160;2023-05-10T04:37:12;15.10;99.90
24207;DHT22;12351;52.284;9.160;2023-05-10T04:39:59;15.10;99.90
24207;DHT22;12351;52.284;9.160;2023-05-10T04:42:47;15.00;99.90
24207;DHT22;12351;52.284;9.160;2023-05-10T04:45:35;14.90;99.90
24207;DHT22;12351;52.284;9.160;2023-05-10T04:48:23;15.00;99.90
24207;DHT22;12351;52.284;9.160;2023-05-10T04:51:11;14.90;99.90
24207;DHT22;12351;52.284;9.160;2023-05-10T04:53:59;14.90;99.90
24207;DHT22;12351;52.284;9.160;2023-05-10T04:56:46;14.90;99.90
24207;DHT22;12351;52.284;9.160;2023-05-10T04:59:36;14.80;99.90
24207;DHT22;12351;52.284;9.160;2023-05-10T05:02:28;14.80;99.90
24207;DHT22;12351;52.284;9.160;2023-05-10T05:05:14;14.80;99.90
24207;DHT22;12351;52.284;9.160;2023-05-10T05:08:01;14.80;99.90
24207;DHT22;12351;52.284;9.160;2023-05-10T05:10:50;14.80;99.90
24207;DHT22;12351;52.284;9.160;2023-05-10T05:13:37;14.80;99.90
24207;DHT22;12351;52.284;9.160;2023-05-10T05:16:29;14.80;99.90
24207;DHT22;12351;52.284;9.160;2023-05-10T05:19:15;14.80;99.90
24207;DHT22;12351;52.284;9.160;2023-05-10T05:22:06;14.80;99.90
24207;DHT22;12351;52.284;9.160;2023-05-10T05:24:54;14.80;99.90
24207;DHT22;12351;52.284;9.160;2023-05-10T05:27:41;14.80;99.90
24207;DHT22;12351;52.284;9.160;2023-05-10T05:30:29;14.80;99.90
24207;DHT22;12351;52.284;9.160;2023-05-10T05:33:18;14.80;99.90
24207;DHT22;12351;52.284;9.160;2023-05-10T05:36:07;14.70;99.90
24207;DHT22;12351;52.284;9.160;2023-05-10T05:38:58;14.80;99.90
24207;DHT22;12351;52.284;9.160;2023-05-10T05:41:47;14.80;99.90
24207;DHT22;12351;52.284;9.160;2023-05-10T05:44:34;14.80;99.90
24207;DHT22;12351;52.284;9.160;2023-05-10T05:47:23;14.80;99.90
24207;DHT22;12351;52.284;9.160;2023-05-10T05:50:11;14.90;99.90
24207;DHT22;12351;52.284;9.160;2023-05-10T05:53:02;14.80;99.90
24207;DHT22;12351;52.284;9.160;2023-05-10T05:55:53;14.80;99.90
24207;DHT22;12351;52.284;9.160;2023-05-10T05:58:43;14.90;99.90
24207;DHT22;12351;52.284;9.160;2023-05-10T06:01:30;14.90;99.90
24207;DHT22;12351;52.284;9.160;2023-05-10T06:04:18;14.90;99.90
24207;DHT22;12351;52.284;9.160;2023-05-10T06:07:07;14.80;99.90
24207;DHT22;12351;52.284;9.160;2023-05-10T06:09:55;14.80;99.90
24207;DHT22;12351;52.284;9.160;2023-05-10T06:12:42;14.60;99.90
24207;DHT22;12351;52.284;9.160;2023-05-10T06:15:31;14.60;99.90
24207;DHT22;12351;52.284;9.160;2023-05-10T06:18:21;14.50;99.90
24207;DHT22;12351;52.284;9.160;2023-05-10T06:21:12;14.50;99.90
24207;DHT22;12351;52.284;9.160;2023-05-10T06:24:02;14.40;99.90
24207;DHT22;12351;52.284;9.160;2023-05-10T06:26:52;14.40;99.90
24207;DHT22;12351;52.284;9.160;2023-05-10T06:29:40;14.30;99.90
24207;DHT22;12351;52.284;9.160;2023-05-10T06:32:29;14.30;99.90
24207;DHT22;12351;52.284;9.160;2023-05-10T06:35:19;14.30;99.90
24207;DHT22;12351;52.284;9.160;2023-05-10T06:38:07;14.30;99.90
24207;DHT22;12351;52.284;9.160;2023-05-10T06:40:54;14.30;99.90
24207;DHT22;12351;52.284;9.160;2023-05-10T06:43:44;14.30;99.90
24207;DHT22;12351;52.284;9.160;2023-05-10T06:46:32;14.30;99.90
24207;DHT22;12351;52.284;9.160;2023-05-10T06:49:20;14.30;99.90
24207;DHT22;12351;52.284;9.160;2023-05-10T06:52:11;14.20;99.90
24207;DHT22;12351;52.284;9.160;2023-05-10T06:55:00;14.20;99.90
24207;DHT22;12351;52.284;9.160;2023-05-10T06:57:48;14.10;99.90
24207;DHT22;12351;52.284;9.160;2023-05-10T07:00:36;14.10;99.90
24207;DHT22;12351;52.284;9.160;2023-05-10T07:03:25;14.00;99.90
24207;DHT22;12351;52.284;9.160;2023-05-10T07:06:13;14.10;99.90
24207;DHT22;12351;52.284;9.160;2023-05-10T07:09:03;14.10;99.90
24207;DHT22;12351;52.284;9.160;2023-05-10T07:11:55;14.10;99.90
24207;DHT22;12351;52.284;9.160;2023-05-10T07:14:43;14.10;99.90
24207;DHT22;12351;52.284;9.160;2023-05-10T07:17:32;14.10;99.90
24207;DHT22;12351;52.284;9.160;2023-05-10T07:20:20;14.10;99.90
24207;DHT22;12351;52.284;9.160;2023-05-10T07:23:12;14.10;99.90
24207;DHT22;12351;52.284;9.160;2023-05-10T07:26:00;14.10;99.90
24207;DHT22;12351;52.284;9.160;2023-05-10T07:28:49;14.00;99.90
24207;DHT22;12351;52.284;9.160;2023-05-10T07:31:38;14.00;99.90
24207;DHT22;12351;52.284;9.160;2023-05-10T07:34:27;14.00;99.90
24207;DHT22;12351;52.284;9.160;2023-05-10T07:37:17;14.00;99.90
24207;DHT22;12351;52.284;9.160;2023-05-10T07:40:07;14.00;99.90
24207;DHT22;12351;52.284;9.160;2023-05-10T07:42:55;14.00;99.90
24207;DHT22;12351;52.284;9.160;2023-05-10T07:45:44;13.90;99.90
24207;DHT22;12351;52.284;9.160;2023-05-10T07:48:33;14.00;99.90
24207;DHT22;12351;52.284;9.160;2023-05-10T07:54:13;14.00;99.90
24207;DHT22;12351;52.284;9.160;2023-05-10T07:57:03;14.00;99.90
24207;DHT22;12351;52.284;9.160;2023-05-10T07:59:52;14.00;99.90
24207;DHT22;12351;52.284;9.160;2023-05-10T08:02:39;14.00;99.90
24207;DHT22;12351;52.284;9.160;2023-05-10T08:05:27;14.00;99.90
24207;DHT22;12351;52.284;9.160;2023-05-10T08:08:17;14.00;99.90
24207;DHT22;12351;52.284;9.160;2023-05-10T08:11:08;14.10;99.90
24207;DHT22;12351;52.284;9.160;2023-05-10T08:13:56;14.00;99.90
24207;DHT22;12351;52.284;9.160;2023-05-10T08:16:45;14.10;99.90
24207;DHT22;12351;52.284;9.160;2023-05-10T08:19:32;14.20;99.90
24207;DHT22;12351;52.284;9.160;2023-05-10T08:22:22;14.20;99.90
24207;DHT22;12351;52.284;9.160;2023-05-10T08:25:11;14.20;99.90
24207;DHT22;12351;52.284;9.160;2023-05-10T08:27:59;14.30;99.90
24207;DHT22;12351;52.284;9.160;2023-05-10T08:30:48;14.40;99.90
24207;DHT22;12351;52.284;9.160;2023-05-10T08:33:40;14.40;99.90
24207;DHT22;12351;52.284;9.160;2023-05-10T08:36:29;14.40;99.90
24207;DHT22;12351;52.284;9.160;2023-05-10T08:39:20;14.40;99.90
24207;DHT22;12351;52.284;9.160;2023-05-10T08:42:08;14.40;99.90
24207;DHT22;12351;52.284;9.160;2023-05-10T08:44:59;14.40;99.90
24207;DHT22;12351;52.284;9.160;2023-05-10T08:47:50;14.40;99.90
24207;DHT22;12351;52.284;9.160;2023-05-10T08:50:39;14.50;99.90
24207;DHT22;12351;52.284;9.160;2023-05-10T08:53:28;14.50;99.90
24207;DHT22;12351;52.284;9.160;2023-05-10T08:56:16;14.60;99.90
24207;DHT22;12351;52.284;9.160;2023-05-10T08:59:06;14.60;99.90
24207;DHT22;12351;52.284;9.160;2023-05-10T09:01:55;14.60;99.90
24207;DHT22;12351;52.284;9.160;2023-05-10T09:04:43;14.60;99.90
24207;DHT22;12351;52.284;9.160;2023-05-10T09:07:33;14.60;99.90
24207;DHT22;12351;52.284;9.160;2023-05-10T09:10:23;14.70;99.90
24207;DHT22;12351;52.284;9.160;2023-05-10T09:13:15;14.60;99.90
24207;DHT22;12351;52.284;9.160;2023-05-10T09:16:05;14.70;99.90
24207;DHT22;12351;52.284;9.160;2023-05-10T09:18:55;14.80;99.90
24207;DHT22;12351;52.284;9.160;2023-05-10T09:21:43;14.80;99.90
24207;DHT22;12351;52.284;9.160;2023-05-10T09:24:31;14.90;99.90
24207;DHT22;12351;52.284;9.160;2023-05-10T09:27:26;14.90;99.90
24207;DHT22;12351;52.284;9.160;2023-05-10T09:33:01;15.00;99.90
24207;DHT22;12351;52.284;9.160;2023-05-10T09:35:52;15.00;99.90
24207;DHT22;12351;52.284;9.160;2023-05-10T09:41:31;15.00;99.90
24207;DHT22;12351;52.284;9.160;2023-05-10T09:44:19;15.00;99.90
24207;DHT22;12351;52.284;9.160;2023-05-10T09:47:08;15.00;99.90
24207;DHT22;12351;52.284;9.160;2023-05-10T09:49:57;15.10;99.90
24207;DHT22;12351;52.284;9.160;2023-05-10T09:52:49;15.20;99.90
24207;DHT22;12351;52.284;9.160;2023-05-10T09:55:40;15.20;99.90
24207;DHT22;12351;52.284;9.160;2023-05-10T09:58:31;15.30;99.90
24207;DHT22;12351;52.284;9.160;2023-05-10T10:01:23;15.40;99.90
24207;DHT22;12351;52.284;9.160;2023-05-10T10:04:11;15.30;99.90
24207;DHT22;12351;52.284;9.160;2023-05-10T10:07:02;15.30;99.90
24207;DHT22;12351;52.284;9.160;2023-05-10T10:09:50;15.40;99.90
24207;DHT22;12351;52.284;9.160;2023-05-10T10:12:40;15.40;99.90
24207;DHT22;12351;52.284;9.160;2023-05-10T10:15:29;15.50;99.90
24207;DHT22;12351;52.284;9.160;2023-05-10T10:18:17;15.70;99.90
24207;DHT22;12351;52.284;9.160;2023-05-10T10:21:09;15.80;99.90
24207;DHT22;12351;52.284;9.160;2023-05-10T10:24:01;15.90;99.90
24207;DHT22;12351;52.284;9.160;2023-05-10T10:26:52;15.90;99.90
24207;DHT22;12351;52.284;9.160;2023-05-10T10:32:38;16.10;99.90
24207;DHT22;12351;52.284;9.160;2023-05-10T10:35:23;16.10;99.90
24207;DHT22;12351;52.284;9.160;2023-05-10T10:38:10;16.30;99.90
24207;DHT22;12351;52.284;9.160;2023-05-10T10:41:01;16.50;99.90
24207;DHT22;12351;52.284;9.160;2023-05-10T10:43:49;16.50;99.90
24207;DHT22;12351;52.284;9.160;2023-05-10T10:46:58;16.70;99.90
24207;DHT22;12351;52.284;9.160;2023-05-10T10:49:28;16.50;45.80
24207;DHT22;12351;52.284;9.160;2023-05-10T10:57:52;16.60;99.90
24207;DHT22;12351;52.284;9.160;2023-05-10T11:00:40;16.70;95.80
24207;DHT22;12351;52.284;9.160;2023-05-10T11:03:33;16.70;99.90
24207;DHT22;12351;52.284;9.160;2023-05-10T11:06:28;17.00;99.90
24207;DHT22;12351;52.284;9.160;2023-05-10T11:09:12;17.20;99.90
24207;DHT22;12351;52.284;9.160;2023-05-10T11:11:59;17.20;99.90
24207;DHT22;12351;52.284;9.160;2023-05-10T11:14:49;17.10;1.00
24207;DHT22;12351;52.284;9.160;2023-05-10T11:17:37;17.10;1.00
24207;DHT22;12351;52.284;9.160;2023-05-10T11:20:27;17.20;1.00
24207;DHT22;12351;52.284;9.160;2023-05-10T11:23:16;17.10;1.00
24207;DHT22;12351;52.284;9.160;2023-05-10T11:26:08;17.20;1.00
24207;DHT22;12351;52.284;9.160;2023-05-10T11:28:57;17.20;1.00
24207;DHT22;12351;52.284;9.160;2023-05-10T11:31:47;17.20;1.00
24207;DHT22;12351;52.284;9.160;2023-05-10T11:34:37;17.20;1.00
24207;DHT22;12351;52.284;9.160;2023-05-10T11:37:28;17.20;1.00
24207;DHT22;12351;52.284;9.160;2023-05-10T11:40:15;17.20;1.00
24207;DHT22;12351;52.284;9.160;2023-05-10T11:43:04;17.30;1.00
24207;DHT22;12351;52.284;9.160;2023-05-10T11:45:52;17.30;1.00
24207;DHT22;12351;52.284;9.160;2023-05-10T11:48:41;17.50;1.00
24207;DHT22;12351;52.284;9.160;2023-05-10T11:51:33;17.70;1.00
24207;DHT22;12351;52.284;9.160;2023-05-10T11:54:21;17.90;1.00
24207;DHT22;12351;52.284;9.160;2023-05-10T11:57:08;17.90;1.00
24207;DHT22;12351;52.284;9.160;2023-05-10T11:59:59;18.10;1.00
24207;DHT22;12351;52.284;9.160;2023-05-10T12:02:49;18.40;1.00
24207;DHT22;12351;52.284;9.160;2023-05-10T12:05:38;18.50;1.00
24207;DHT22;12351;52.284;9.160;2023-05-10T12:08:31;18.40;1.00
24207;DHT22;12351;52.284;9.160;2023-05-10T12:11:20;18.40;1.00
24207;DHT22;12351;52.284;9.160;2023-05-10T12:14:12;18.40;1.00
24207;DHT22;12351;52.284;9.160;2023-05-10T12:17:02;18.60;1.00
24207;DHT22;12351;52.284;9.160;2023-05-10T12:19:50;18.50;99.90
24207;DHT22;12351;52.284;9.160;2023-05-10T12:22:37;18.50;99.90
24207;DHT22;12351;52.284;9.160;2023-05-10T12:28:19;18.50;1.00
24207;DHT22;12351;52.284;9.160;2023-05-10T12:31:08;18.50;1.00
24207;DHT22;12351;52.284;9.160;2023-05-10T12:33:59;18.60;99.90
24207;DHT22;12351;52.284;9.160;2023-05-10T12:36:46;18.60;99.90
24207;DHT22;12351;52.284;9.160;2023-05-10T12:42:25;18.50;99.90
24207;DHT22;12351;52.284;9.160;2023-05-10T12:45:14;18.60;99.90
24207;DHT22;12351;52.284;9.160;2023-05-10T12:48:02;18.60;1.00
24207;DHT22;12351;52.284;9.160;2023-05-10T12:50:51;18.60;99.90
24207;DHT22;12351;52.284;9.160;2023-05-10T12:53:39;18.60;1.00
24207;DHT22;12351;52.284;9.160;2023-05-10T12:56:28;18.80;1.00
24207;DHT22;12351;52.284;9.160;2023-05-10T12:59:15;18.90;1.00
24207;DHT22;12351;52.284;9.160;2023-05-10T13:02:03;18.80;1.00
24207;DHT22;12351;52.284;9.160;2023-05-10T13:04:52;18.90;1.00
24207;DHT22;12351;52.284;9.160;2023-05-10T13:07:40;19.10;1.00
24207;DHT22;12351;52.284;9.160;2023-05-10T13:10:30;19.20;1.00
24207;DHT22;12351;52.284;9.160;2023-05-10T13:13:20;19.30;99.90
24207;DHT22;12351;52.284;9.160;2023-05-10T13:16:07;19.50;1.00
24207;DHT22;12351;52.284;9.160;2023-05-10T13:18:56;19.60;99.90
24207;DHT22;12351;52.284;9.160;2023-05-10T13:21:44;19.50;99.90
24207;DHT22;12351;52.284;9.160;2023-05-10T13:24:32;19.60;99.90
24207;DHT22;12351;52.284;9.160;2023-05-10T13:27:20;19.60;99.90
24207;DHT22;12351;52.284;9.160;2023-05-10T13:30:09;19.60;1.00
24207;DHT22;12351;52.284;9.160;2023-05-10T13:33:00;19.30;1.00
24207;DHT22;12351;52.284;9.160;2023-05-10T13:35:49;19.40;1.00
24207;DHT22;12351;52.284;9.160;2023-05-10T13:38:39;19.50;29.60
24207;DHT22;12351;52.284;9.160;2023-05-10T13:41:28;19.50;1.00
24207;DHT22;12351;52.284;9.160;2023-05-10T13:44:15;19.50;99.90
24207;DHT22;12351;52.284;9.160;2023-05-10T13:47:04;19.40;13.60
24207;DHT22;12351;52.284;9.160;2023-05-10T13:49:54;19.30;99.90
24207;DHT22;12351;52.284;9.160;2023-05-10T13:52:44;19.30;1.00
24207;DHT22;12351;52.284;9.160;2023-05-10T13:55:33;19.50;1.00
24207;DHT22;12351;52.284;9.160;2023-05-10T13:58:20;19.50;99.90
24207;DHT22;12351;52.284;9.160;2023-05-10T14:01:08;19.40;10.20
24207;DHT22;12351;52.284;9.160;2023-05-10T14:03:57;19.10;1.00
24207;DHT22;12351;52.284;9.160;2023-05-10T14:06:46;18.80;1.00
24207;DHT22;12351;52.284;9.160;2023-05-10T14:09:34;18.30;1.00
24207;DHT22;12351;52.284;9.160;2023-05-10T14:12:23;18.50;99.90
24207;DHT22;12351;52.284;9.160;2023-05-10T14:15:10;18.60;99.90
24207;DHT22;12351;52.284;9.160;2023-05-10T14:17:58;18.70;5.80
24207;DHT22;12351;52.284;9.160;2023-05-10T14:20:45;18.60;1.00
24207;DHT22;12351;52.284;9.160;2023-05-10T14:23:34;18.50;99.90
24207;DHT22;12351;52.284;9.160;2023-05-10T14:26:21;18.80;8.00
24207;DHT22;12351;52.284;9.160;2023-05-10T14:29:11;18.60;33.20
24207;DHT22;12351;52.284;9.160;2023-05-10T14:32:00;18.80;1.00
24207;DHT22;12351;52.284;9.160;2023-05-10T14:34:48;18.80;1.00
24207;DHT22;12351;52.284;9.160;2023-05-10T14:37:37;19.10;1.00
24207;DHT22;12351;52.284;9.160;2023-05-10T14:40:24;19.30;1.00
24207;DHT22;12351;52.284;9.160;2023-05-10T14:43:12;19.50;1.00
24207;DHT22;12351;52.284;9.160;2023-05-10T14:45:59;19.70;1.00
24207;DHT22;12351;52.284;9.160;2023-05-10T14:48:47;19.60;1.00
24207;DHT22;12351;52.284;9.160;2023-05-10T14:51:37;19.60;1.00
24207;DHT22;12351;52.284;9.160;2023-05-10T14:54:24;19.40;1.00
24207;DHT22;12351;52.284;9.160;2023-05-10T14:57:12;19.40;1.00
24207;DHT22;12351;52.284;9.160;2023-05-10T15:00:03;19.30;1.00
24207;DHT22;12351;52.284;9.160;2023-05-10T15:02:52;19.20;1.00
24207;DHT22;12351;52.284;9.160;2023-05-10T15:05:41;19.20;99.90
24207;DHT22;12351;52.284;9.160;2023-05-10T15:08:31;18.70;99.90
24207;DHT22;12351;52.284;9.160;2023-05-10T15:11:18;18.70;1.00
24207;DHT22;12351;52.284;9.160;2023-05-10T15:14:09;18.90;1.00
24207;DHT22;12351;52.284;9.160;2023-05-10T15:16:57;18.90;1.00
24207;DHT22;12351;52.284;9.160;2023-05-10T15:19:46;19.00;1.00
24207;DHT22;12351;52.284;9.160;2023-05-10T15:22:34;19.10;1.00
24207;DHT22;12351;52.284;9.160;2023-05-10T15:25:24;19.10;99.90
24207;DHT22;12351;52.284;9.160;2023-05-10T15:28:12;19.10;99.90
24207;DHT22;12351;52.284;9.160;2023-05-10T15:31:00;19.10;83.70
24207;DHT22;12351;52.284;9.160;2023-05-10T15:33:47;19.10;1.00
24207;DHT22;12351;52.284;9.160;2023-05-10T15:36:34;19.10;1.00
24207;DHT22;12351;52.284;9.160;2023-05-10T15:39:23;19.10;1.00
24207;DHT22;12351;52.284;9.160;2023-05-10T15:42:14;19.10;1.00
24207;DHT22;12351;52.284;9.160;2023-05-10T15:45:01;19.10;1.00
24207;DHT22;12351;52.284;9.160;2023-05-10T15:47:50;19.10;1.60
24207;DHT22;12351;52.284;9.160;2023-05-10T15:50:40;19.20;1.00
24207;DHT22;12351;52.284;9.160;2023-05-10T15:53:30;19.20;1.00
24207;DHT22;12351;52.284;9.160;2023-05-10T15:56:17;19.20;1.00
24207;DHT22;12351;52.284;9.160;2023-05-10T15:59:09;19.20;99.90
24207;DHT22;12351;52.284;9.160;2023-05-10T16:01:56;19.20;99.90
24207;DHT22;12351;52.284;9.160;2023-05-10T16:04:44;19.10;99.90
24207;DHT22;12351;52.284;9.160;2023-05-10T16:07:34;19.00;99.90
24207;DHT22;12351;52.284;9.160;2023-05-10T16:10:21;19.00;99.90
24207;DHT22;12351;52.284;9.160;2023-05-10T16:13:08;19.00;99.90
24207;DHT22;12351;52.284;9.160;2023-05-10T16:15:57;19.00;99.90
24207;DHT22;12351;52.284;9.160;2023-05-10T16:18:46;19.00;1.00
24207;DHT22;12351;52.284;9.160;2023-05-10T16:21:33;19.00;1.00
24207;DHT22;12351;52.284;9.160;2023-05-10T16:24:22;18.90;1.00
24207;DHT22;12351;52.284;9.160;2023-05-10T16:27:11;19.00;1.00
24207;DHT22;12351;52.284;9.160;2023-05-10T16:29:59;18.90;1.00
24207;DHT22;12351;52.284;9.160;2023-05-10T16:32:46;18.90;1.00
24207;DHT22;12351;52.284;9.160;2023-05-10T16:35:36;18.90;1.00
24207;DHT22;12351;52.284;9.160;2023-05-10T16:38:24;18.90;1.00
24207;DHT22;12351;52.284;9.160;2023-05-10T16:41:13;18.90;1.00
24207;DHT22;12351;52.284;9.160;2023-05-10T16:44:01;18.90;1.00
24207;DHT22;12351;52.284;9.160;2023-05-10T16:46:49;18.90;1.00
24207;DHT22;12351;52.284;9.160;2023-05-10T16:49:39;18.80;1.00
24207;DHT22;12351;52.284;9.160;2023-05-10T16:52:27;18.80;1.00
24207;DHT22;12351;52.284;9.160;2023-05-10T16:55:17;18.90;1.00
24207;DHT22;12351;52.284;9.160;2023-05-10T16:58:05;18.80;1.00
24207;DHT22;12351;52.284;9.160;2023-05-10T17:00:55;18.80;1.00
24207;DHT22;12351;52.284;9.160;2023-05-10T17:03:42;18.70;1.00
24207;DHT22;12351;52.284;9.160;2023-05-10T17:06:31;18.60;1.00
24207;DHT22;12351;52.284;9.160;2023-05-10T17:09:20;18.50;1.00
24207;DHT22;12351;52.284;9.160;2023-05-10T17:12:08;18.50;1.00
24207;DHT22;12351;52.284;9.160;2023-05-10T17:14:58;18.40;1.00
24207;DHT22;12351;52.284;9.160;2023-05-10T17:17:47;18.30;1.00
24207;DHT22;12351;52.284;9.160;2023-05-10T17:20:37;18.30;1.00
24207;DHT22;12351;52.284;9.160;2023-05-10T17:23:27;18.30;1.00
24207;DHT22;12351;52.284;9.160;2023-05-10T17:26:15;18.20;1.00
24207;DHT22;12351;52.284;9.160;2023-05-10T17:29:04;18.10;1.00
24207;DHT22;12351;52.284;9.160;2023-05-10T17:31:53;18.10;1.00
24207;DHT22;12351;52.284;9.160;2023-05-10T17:34:43;18.00;1.00
24207;DHT22;12351;52.284;9.160;2023-05-10T17:37:33;18.00;1.00
24207;DHT22;12351;52.284;9.160;2023-05-10T17:40:21;17.90;1.00
24207;DHT22;12351;52.284;9.160;2023-05-10T17:43:08;17.90;1.00
24207;DHT22;12351;52.284;9.160;2023-05-10T17:45:58;17.90;1.00
24207;DHT22;12351;52.284;9.160;2023-05-10T17:48:45;17.80;1.00
24207;DHT22;12351;52.284;9.160;2023-05-10T17:51:32;17.80;1.00
24207;DHT22;12351;52.284;9.160;2023-05-10T17:54:22;17.70;1.00
24207;DHT22;12351;52.284;9.160;2023-05-10T17:57:08;17.60;1.00
24207;DHT22;12351;52.284;9.160;2023-05-10T17:59:57;17.60;1.00
24207;DHT22;12351;52.284;9.160;2023-05-10T18:02:48;17.50;1.00
24207;DHT22;12351;52.284;9.160;2023-05-10T18:05:36;17.50;1.00
24207;DHT22;12351;52.284;9.160;2023-05-10T18:08:24;17.50;1.00
24207;DHT22;12351;52.284;9.160;2023-05-10T18:11:12;17.50;1.00
24207;DHT22;12351;52.284;9.160;2023-05-10T18:14:01;17.40;1.00
24207;DHT22;12351;52.284;9.160;2023-05-10T18:16:49;17.40;1.00
24207;DHT22;12351;52.284;9.160;2023-05-10T18:19:38;17.40;1.00
24207;DHT22;12351;52.284;9.160;2023-05-10T18:22:25;17.30;1.00
24207;DHT22;12351;52.284;9.160;2023-05-10T18:25:14;17.20;1.00
24207;DHT22;12351;52.284;9.160;2023-05-10T18:28:05;17.10;1.00
24207;DHT22;12351;52.284;9.160;2023-05-10T18:30:54;17.20;1.00
24207;DHT22;12351;52.284;9.160;2023-05-10T18:33:45;17.10;1.00
24207;DHT22;12351;52.284;9.160;2023-05-10T18:36:32;17.10;1.00